Latest Coastal Weather Observations for Centre Island

IDD60701

Issued at 12:31 pm CST Sunday 22 October 2017 (issued every 10 minutes, with the page automatically refreshed every 10 minutes)

About coastal observations | Map of coastal stations | Coastal observations for NT | Marine services | Other Formats
Station Details ID: 014703 Name: CENTRE ISLAND Lat: -15.74 Lon: 136.82 Height: 12.2 m
Data from the previous 72 hours. | See also: Recent months at Centre Island
Date/Time
CST
Temp
°C
Wind Pressure Rain since
9am
mm
Weather Cloud Vis
km
Sea
Height
m
Swell
Dir  Spd
kts
Gust
kts
hPa Trend Height
m
Period
s
Dir
22/12:30pm 33.2 E 11 14 1011.2 - 0.0 - - - - - - -
22/12:00pm 33.1 E 13 16 1011.8 - 0.0 - - - - - - -
22/11:30am 33.2 ESE 16 19 1012.3 - 0.0 - - - - - - -
22/11:00am 32.6 ESE 11 16 1012.6 - 0.0 - - - - - - -
22/10:30am 31.5 E 10 13 1013.0 - 0.0 - - - - - - -
22/10:00am 32.2 SE 9 12 1013.2 - 0.0 - - - - - - -
22/09:30am 31.2 SE 9 12 1013.3 - 0.0 - - - - - - -
22/09:00am 30.8 SE 10 13 1013.4 - - - - - - - - -
22/08:30am 29.9 SE 14 16 1013.2 - - - - - - - - -
22/08:00am 29.4 SSE 15 17 1012.7 - - - - - - - - -
22/07:30am 28.8 SSE 14 16 1012.3 - - - - - - - - -
22/07:00am 28.2 S 9 12 1011.8 - - - - - - - - -
22/06:30am 27.8 S 7 9 1011.5 - - - - - - - - -
22/06:00am 27.2 S 9 11 1011.2 - - - - - - - - -
22/05:30am 27.3 S 10 12 1010.8 - - - - - - - - -
22/05:00am 27.4 S 9 12 1010.6 - - - - - - - - -
22/04:30am 27.4 S 9 12 1010.4 - - - - - - - - -
22/04:00am 27.6 S 9 11 1010.3 - - - - - - - - -
22/03:30am 27.8 SSE 10 13 1010.4 - - - - - - - - -
22/03:00am 27.8 SSE 6 8 1010.4 - - - - - - - - -
22/02:30am 27.5 ESE 3 4 1010.5 - - - - - - - - -
22/02:00am 27.4 E 3 4 1010.6 - - - - - - - - -
22/01:30am 27.5 E 4 6 1010.8 - - - - - - - - -
22/01:00am 27.7 ENE 5 7 1011.0 - - - - - - - - -
22/12:30am 27.8 ENE 6 8 1011.3 - - - - - - - - -
22/12:00am 27.9 ENE 7 8 1011.6 - - - - - - - - -
 
Date/Time
CST
Temp
°C
Wind Pressure Rain since
9am
mm
Weather Cloud Vis
km
Sea
Height
m
Swell
Dir  Spd
kts
Gust
kts
hPa Trend Height
m
Period
s
Dir
21/11:30pm 28.0 ENE 8 10 1011.8 - 0.0 - - - - - - -
21/11:00pm 28.1 ENE 7 9 1011.9 - 0.0 - - - - - - -
21/10:30pm 28.2 ENE 8 10 1011.9 - 0.0 - - - - - - -
21/10:00pm 28.2 ENE 8 11 1011.9 - 0.0 - - - - - - -
21/09:30pm 28.3 ENE 9 13 1011.6 - 0.0 - - - - - - -
21/09:00pm 28.4 ENE 11 14 1011.3 - 0.0 - - - - - - -
21/08:30pm 28.4 NE 12 16 1011.0 - 0.0 - - - - - - -
21/08:00pm 28.4 ENE 14 18 1010.6 - 0.0 - - - - - - -
21/07:30pm 28.5 NE 14 17 1010.6 - 0.0 - - - - - - -
21/07:00pm 28.8 NE 14 18 1010.4 - 0.0 - - - - - - -
21/06:30pm 29.0 NE 15 18 1010.0 - 0.0 - - - - - - -
21/06:00pm 29.3 NE 13 17 1009.6 - 0.0 - - - - - - -
21/05:30pm 30.0 ENE 13 18 1009.5 - 0.0 - - - - - - -
21/05:00pm 30.6 ENE 14 18 1009.4 - 0.0 - - - - - - -
21/04:30pm 31.3 ENE 14 17 1009.3 - 0.0 - - - - - - -
21/04:00pm 31.6 E 16 19 1009.3 - 0.0 - - - - - - -
21/03:30pm 32.2 E 16 19 1009.5 - 0.0 - - - - - - -
21/03:00pm 32.6 E 14 18 1009.7 - 0.0 - - - - - - -
21/02:30pm 32.6 ENE 15 19 1009.9 - 0.0 - - - - - - -
21/02:00pm 32.9 E 16 19 1010.3 - 0.0 - - - - - - -
21/01:30pm 33.3 ENE 15 18 1010.9 - 0.0 - - - - - - -
21/01:00pm 33.3 E 14 17 1011.5 - 0.0 - - - - - - -
21/12:30pm 33.8 E 14 17 1012.1 - 0.0 - - - - - - -
21/12:00pm 32.9 E 16 18 1012.6 - 0.0 - - - - - - -
21/11:30am 32.6 ESE 16 19 1013.1 - 0.0 - - - - - - -
21/11:00am 32.4 ESE 16 19 1013.5 - 0.0 - - - - - - -
21/10:30am 31.6 ESE 17 20 1013.8 - 0.0 - - - - - - -
21/10:00am 31.1 ESE 18 22 1014.1 - 0.0 - - - - - - -
21/09:30am 30.1 ESE 19 23 1014.3 - 0.0 - - - - - - -
21/09:00am 30.0 ESE 19 23 1014.3 - 0.0 - - - - - - -
21/08:30am 29.1 SE 17 20 1014.2 - 0.0 - - - - - - -
21/08:00am 28.4 SSE 15 21 1014.1 - 0.0 - - - - - - -
21/07:30am 28.4 SSE 12 16 1013.8 - 0.0 - - - - - - -
21/07:00am 27.6 S 13 15 1013.6 - 0.0 - - - - - - -
21/06:30am 27.3 S 13 16 1013.0 - 0.0 - - - - - - -
21/06:00am 27.1 S 12 14 1012.7 - 0.0 - - - - - - -
21/05:30am 27.4 S 13 16 1012.4 - 0.0 - - - - - - -
21/05:00am 27.4 S 14 18 1012.2 - 0.0 - - - - - - -
21/04:30am 27.6 S 15 17 1011.9 - 0.0 - - - - - - -
21/04:00am 28.0 SSE 12 16 1011.6 - 0.0 - - - - - - -
21/03:30am 28.0 SE 8 11 1011.4 - 0.0 - - - - - - -
21/03:00am 27.7 E 6 7 1011.1 - 0.0 - - - - - - -
21/02:30am 27.9 E 8 9 1011.3 - 0.0 - - - - - - -
21/02:00am 27.9 E 7 9 1011.5 - 0.0 - - - - - - -
21/01:30am 28.0 E 8 9 1011.9 - 0.0 - - - - - - -
21/01:00am 28.0 E 7 8 1012.1 - 0.0 - - - - - - -
21/12:30am 28.0 ENE 7 9 1012.3 - 0.0 - - - - - - -
21/12:00am 28.2 ENE 7 8 1012.8 - 0.0 - - - - - - -
 
Date/Time
CST
Temp
°C
Wind Pressure Rain since
9am
mm
Weather Cloud Vis
km
Sea
Height
m
Swell
Dir  Spd
kts
Gust
kts
hPa Trend Height
m
Period
s
Dir
20/11:30pm 28.1 E 6 8 1013.1 - 0.0 - - - - - - -
20/11:00pm 28.3 E 6 7 1013.5 - 0.0 - - - - - - -
20/10:30pm 28.4 ENE 7 9 1013.4 - 0.0 - - - - - - -
20/10:00pm 28.5 E 8 10 1013.3 - 0.0 - - - - - - -
20/09:30pm 28.5 ENE 8 11 1013.3 - 0.0 - - - - - - -
20/09:00pm 28.5 E 10 12 1013.2 - 0.0 - - - - - - -
20/08:30pm 28.5 ENE 10 11 1012.7 - 0.0 - - - - - - -
20/08:00pm 28.6 ENE 10 12 1012.4 - 0.0 - - - - - - -
20/07:30pm 28.8 ENE 8 11 1012.0 - 0.0 - - - - - - -
20/07:00pm 29.2 ENE 9 12 1011.9 - 0.0 - - - - - - -
20/06:30pm 29.4 ENE 10 13 1011.5 - 0.0 - - - - - - -
20/06:00pm 29.8 E 10 12 1011.3 - 0.0 - - - - - - -
20/05:30pm 30.3 ENE 11 14 1011.0 - 0.0 - - - - - - -
20/05:00pm 30.8 NE 11 15 1010.9 - 0.0 - - - - - - -
20/04:30pm 31.6 NE 9 14 1010.9 - 0.0 - - - - - - -
20/04:00pm 31.8 E 6 7 1010.9 - 0.0 - - - - - - -
20/03:30pm 31.3 ESE 10 12 1011.0 - 0.0 - - - - - - -
20/03:00pm 30.7 ESE 14 16 1011.2 - 0.0 - - - - - - -
20/02:30pm 29.7 SE 19 21 1011.6 - 0.0 - - - - - - -
20/02:09pm 29.4 SE 19 26 1012.0 - 0.0 - - - - - - -
20/02:04pm 31.9 ESE 15 25 1012.1 - 0.0 - - - - - - -
20/02:00pm 32.0 ESE 14 19 1012.1 - 0.0 - - - - - - -
20/01:30pm 31.7 ENE 11 14 1012.1 - 0.0 - - - - - - -
20/01:00pm 31.7 NE 12 15 1012.3 - 0.0 - - - - - - -
20/12:30pm 33.6 E 12 14 1012.5 - 0.0 - - - - - - -
20/12:00pm 33.7 ESE 13 17 1012.9 - 0.0 - - - - - - -
20/11:30am 34.3 E 11 14 1013.4 - 0.0 - - - - - - -
20/11:00am 33.7 E 10 13 1013.9 - 0.0 - - - - - - -
20/10:30am 32.5 E 11 14 1013.9 - 0.0 - - - - - - -
20/10:00am 32.2 E 12 16 1013.8 - 0.0 - - - - - - -
20/09:30am 30.4 ESE 8 9 1013.8 - 0.0 - - - - - - -
20/09:00am 30.7 SE 7 8 1013.8 - 0.0 - - - - - - -
20/08:30am 30.6 E 6 8 1013.6 - 0.0 - - - - - - -
20/08:00am 29.9 E 7 9 1013.4 - 0.0 - - - - - - -
20/07:30am 29.2 ENE 5 7 1012.8 - 0.0 - - - - - - -
20/07:00am 29.2 E 5 7 1012.3 - 0.0 - - - - - - -
20/06:30am 27.9 E 5 7 1011.9 - 0.0 - - - - - - -
20/06:00am 26.6 E 4 6 1011.4 - 0.0 - - - - - - -
20/05:30am 26.3 CALM 0 0 1011.0 - 0.0 - - - - - - -
20/05:00am 26.2 N 3 3 1010.5 - 0.0 - - - - - - -
20/04:30am 26.6 N 1 3 1010.0 - 0.0 - - - - - - -
20/04:00am 26.4 CALM 0 0 1009.7 - 0.0 - - - - - - -
20/03:30am 26.5 CALM 0 0 1009.8 - 0.0 - - - - - - -
20/03:00am 26.8 N 3 4 1009.9 - 0.0 - - - - - - -
20/02:30am 27.0 CALM 0 0 1009.9 - 0.0 - - - - - - -
20/02:00am 27.3 ENE 3 4 1010.0 - 0.0 - - - - - - -
20/01:30am 27.2 ENE 3 4 1010.2 - 0.0 - - - - - - -
20/01:00am 27.6 ENE 4 6 1010.4 - 0.0 - - - - - - -
20/12:30am 27.8 ENE 5 6 1010.7 - 0.0 - - - - - - -
20/12:00am 28.1 ENE 6 8 1011.0 - 0.0 - - - - - - -
 
Date/Time
CST
Temp
°C
Wind Pressure Rain since
9am
mm
Weather Cloud Vis
km
Sea
Height
m
Swell
Dir  Spd
kts
Gust
kts
hPa Trend Height
m
Period
s
Dir
19/11:30pm 28.2 ENE 9 10 1011.4 - 0.0 - - - - - - -
19/11:00pm 28.4 ENE 10 11 1011.5 - 0.0 - - - - - - -
19/10:30pm 28.6 ENE 10 12 1011.7 - 0.0 - - - - - - -
19/10:00pm 28.7 NE 9 11 1011.6 - 0.0 - - - - - - -
19/09:30pm 28.7 NE 8 11 1011.4 - 0.0 - - - - - - -
19/09:00pm 28.8 NNE 10 13 1011.2 - 0.0 - - - - - - -
19/08:30pm 28.8 NNE 11 15 1010.7 - 0.0 - - - - - - -
19/08:00pm 28.8 NNE 10 13 1010.4 - 0.0 - - - - - - -
19/07:30pm 29.0 NE 10 13 1010.2 - 0.0 - - - - - - -
19/07:00pm 29.1 NNE 11 14 1009.7 - 0.0 - - - - - - -
19/06:30pm 29.2 NNE 10 14 1009.3 - 0.0 - - - - - - -
19/06:00pm 29.6 NNE 11 14 1009.1 - 0.0 - - - - - - -
19/05:30pm 30.3 NNE 10 14 1008.7 - 0.0 - - - - - - -
19/05:00pm 30.7 NNE 12 16 1008.4 - 0.0 - - - - - - -
19/04:30pm 31.1 NNE 13 16 1008.2 - 0.0 - - - - - - -
19/04:00pm 31.5 NNE 12 16 1008.1 - 0.0 - - - - - - -
19/03:30pm 31.8 NNE 12 15 1008.2 - 0.0 - - - - - - -
19/03:00pm 32.3 NNE 12 16 1008.3 - 0.0 - - - - - - -
19/02:30pm 32.9 NNE 12 16 1008.6 - 0.0 - - - - - - -
19/02:00pm 33.5 NE 13 17 1009.0 - 0.0 - - - - - - -
19/01:30pm 33.8 NNE 15 20 1009.3 - 0.0 - - - - - - -
19/01:00pm 33.6 NE 8 11 1009.7 - 0.0 - - - - - - -

Other Formats:

Comma delimited format used in spreadsheet applications
http://www.bom.gov.au/fwo/IDD60701/IDD60701.94248.axf

JavaScript Object Notation format (JSON) in row-major order
http://www.bom.gov.au/fwo/IDD60701/IDD60701.94248.json